createdAt,value
2022-10-17T00:01:39.314Z,9.27
2022-10-17T00:04:06.217Z,10.25
2022-10-17T00:06:33.077Z,9.55
2022-10-17T00:08:59.915Z,10.70
2022-10-17T00:11:26.769Z,11.80
2022-10-17T00:13:55.936Z,11.27
2022-10-17T00:16:37.590Z,12.80
2022-10-17T00:19:06.228Z,13.20
2022-10-17T00:21:33.171Z,14.05
2022-10-17T00:24:01.024Z,14.07
2022-10-17T00:26:31.007Z,13.95
2022-10-17T00:28:57.905Z,18.48
2022-10-17T00:31:25.534Z,19.52
2022-10-17T00:33:53.087Z,17.95
2022-10-17T00:36:22.431Z,16.45
2022-10-17T00:38:53.458Z,12.15
2022-10-17T00:41:24.177Z,21.17
2022-10-17T00:43:56.542Z,15.63
2022-10-17T00:46:27.978Z,11.63
2022-10-17T00:48:56.621Z,12.43
2022-10-17T00:51:29.987Z,11.07
2022-10-17T00:53:56.941Z,13.85
2022-10-17T00:56:23.799Z,14.82
2022-10-17T00:58:50.737Z,16.45
2022-10-17T01:01:17.638Z,15.05
2022-10-17T01:03:44.672Z,13.65
2022-10-17T01:06:11.510Z,12.30
2022-10-17T01:08:38.584Z,13.32
2022-10-17T01:11:31.126Z,13.52
2022-10-17T01:14:03.960Z,13.45
2022-10-17T01:17:19.750Z,13.80
2022-10-17T01:20:05.437Z,13.25
2022-10-17T01:23:26.303Z,13.52
2022-10-17T01:26:06.203Z,11.80
2022-10-17T01:28:56.147Z,11.95
2022-10-17T01:31:36.539Z,10.90
2022-10-17T01:34:10.027Z,11.50
2022-10-17T01:36:39.585Z,11.48
2022-10-17T01:39:08.994Z,12.13
2022-10-17T01:41:40.552Z,11.75
2022-10-17T01:44:25.299Z,12.27
2022-10-17T01:47:14.228Z,11.23
2022-10-17T01:49:43.615Z,11.18
2022-10-17T01:52:16.024Z,11.27
2022-10-17T01:54:55.964Z,10.38
2022-10-17T01:57:36.582Z,10.95
2022-10-17T02:00:05.597Z,10.88
2022-10-17T02:02:32.900Z,10.45
2022-10-17T02:07:33.947Z,10.05
2022-10-17T02:10:00.763Z,8.85
2022-10-17T02:12:36.718Z,9.27
2022-10-17T02:15:31.456Z,11.25
2022-10-17T02:18:19.577Z,9.50
2022-10-17T02:20:50.000Z,9.52
2022-10-17T02:23:45.966Z,8.73
2022-10-17T02:26:33.955Z,9.48
2022-10-17T02:29:10.048Z,8.68
2022-10-17T02:31:40.766Z,9.15
2022-10-17T02:34:18.860Z,9.23
2022-10-17T02:36:52.724Z,8.52
2022-10-17T02:39:21.219Z,8.55
2022-10-17T02:41:49.944Z,8.30
2022-10-17T02:44:17.170Z,7.25
2022-10-17T02:46:48.957Z,7.28
2022-10-17T02:49:22.835Z,7.47
2022-10-17T02:51:53.259Z,8.85
2022-10-17T02:54:20.117Z,13.25
2022-10-17T02:56:51.780Z,10.88
2022-10-17T02:59:22.257Z,10.32
2022-10-17T03:01:51.660Z,10.63
2022-10-17T03:04:18.851Z,20.73
2022-10-17T03:06:47.462Z,21.00
2022-10-17T03:09:14.642Z,19.98
2022-10-17T03:11:42.150Z,20.15
2022-10-17T03:14:09.099Z,17.95
2022-10-17T03:16:35.992Z,21.52
2022-10-17T03:19:03.287Z,26.45
2022-10-17T03:21:30.168Z,26.65
2022-10-17T03:23:57.010Z,25.77
2022-10-17T03:26:23.895Z,20.70
2022-10-17T03:28:53.621Z,20.50
2022-10-17T03:31:21.839Z,20.23
2022-10-17T03:33:48.748Z,14.95
2022-10-17T03:36:17.377Z,15.43
2022-10-17T03:38:44.710Z,15.20
2022-10-17T03:41:12.091Z,17.05
2022-10-17T03:43:42.482Z,16.25
2022-10-17T03:46:09.413Z,12.35
2022-10-17T03:48:36.409Z,9.60
2022-10-17T03:51:06.089Z,8.70
2022-10-17T03:53:33.309Z,7.75
2022-10-17T03:56:13.029Z,7.20
2022-10-17T03:58:40.663Z,8.15
2022-10-17T04:01:09.425Z,8.88
2022-10-17T04:03:36.739Z,10.77
2022-10-17T04:06:04.933Z,10.13
2022-10-17T04:08:32.020Z,12.52
2022-10-17T04:11:03.072Z,11.35
2022-10-17T04:13:30.039Z,11.05
2022-10-17T04:16:02.691Z,10.18
2022-10-17T04:18:29.545Z,10.18
2022-10-17T04:20:56.909Z,10.05
2022-10-17T04:23:23.906Z,10.85
2022-10-17T04:25:50.758Z,15.60
2022-10-17T04:28:17.658Z,13.60
2022-10-17T04:30:45.574Z,11.93
2022-10-17T04:33:12.618Z,10.85
2022-10-17T04:35:39.497Z,10.02
2022-10-17T04:38:06.347Z,10.10
2022-10-17T04:40:33.301Z,10.02
2022-10-17T04:43:00.329Z,9.50
2022-10-17T04:45:27.194Z,10.65
2022-10-17T04:47:54.019Z,9.45
2022-10-17T04:50:20.913Z,8.43
2022-10-17T04:52:47.766Z,9.57
2022-10-17T04:55:14.592Z,9.30
2022-10-17T04:57:41.410Z,9.50
2022-10-17T05:02:41.407Z,12.45
2022-10-17T05:05:08.662Z,9.70
2022-10-17T05:07:35.509Z,9.80
2022-10-17T05:10:02.407Z,11.68
2022-10-17T05:12:29.404Z,12.07
2022-10-17T05:14:56.458Z,11.18
2022-10-17T05:17:23.319Z,11.60
2022-10-17T05:19:50.179Z,11.60
2022-10-17T05:22:17.061Z,9.95
2022-10-17T05:24:43.923Z,11.25
2022-10-17T05:27:10.765Z,11.40
2022-10-17T05:29:37.710Z,11.77
2022-10-17T05:32:04.634Z,11.30
2022-10-17T05:34:31.460Z,10.07
2022-10-17T05:36:58.307Z,10.43
2022-10-17T05:39:25.140Z,9.85
2022-10-17T05:41:52.629Z,9.60
2022-10-17T05:44:19.512Z,10.82
2022-10-17T05:46:49.227Z,13.65
2022-10-17T05:49:32.245Z,13.32
2022-10-17T05:52:03.700Z,12.70
2022-10-17T05:54:35.388Z,14.52
2022-10-17T05:57:08.221Z,25.12
2022-10-17T05:59:38.554Z,22.13
2022-10-17T06:02:05.936Z,19.75
2022-10-17T06:04:33.010Z,16.02
2022-10-17T06:06:59.867Z,19.27
2022-10-17T06:09:26.829Z,19.65
2022-10-17T06:11:53.635Z,17.20
2022-10-17T06:14:20.529Z,14.90
2022-10-17T06:16:47.449Z,14.43
2022-10-17T06:19:14.346Z,13.18
2022-10-17T06:21:41.733Z,12.48
2022-10-17T06:24:08.630Z,10.98
2022-10-17T06:26:35.449Z,10.18
2022-10-17T06:29:02.562Z,11.00
2022-10-17T06:31:29.536Z,12.05
2022-10-17T06:33:56.617Z,10.40
2022-10-17T06:36:23.463Z,10.30
2022-10-17T06:38:50.344Z,10.38
2022-10-17T06:41:19.459Z,9.52
2022-10-17T06:43:51.456Z,9.60
2022-10-17T06:46:20.098Z,9.85
2022-10-17T06:48:47.003Z,10.18
2022-10-17T06:51:14.114Z,9.95
2022-10-17T06:53:41.183Z,9.75
2022-10-17T06:56:09.107Z,10.32
2022-10-17T06:58:39.260Z,10.15
2022-10-17T07:03:59.557Z,10.38
2022-10-17T07:06:26.615Z,11.23
2022-10-17T07:08:53.526Z,11.05
2022-10-17T07:11:21.738Z,10.52
2022-10-17T07:13:48.748Z,10.13
2022-10-17T07:16:16.322Z,10.65
2022-10-17T07:18:43.480Z,10.88
2022-10-17T07:21:10.690Z,9.95
2022-10-17T07:23:37.937Z,10.38
2022-10-17T07:26:08.546Z,10.43
2022-10-17T07:28:37.474Z,11.55
2022-10-17T07:31:10.217Z,11.12
2022-10-17T07:33:37.342Z,11.63
2022-10-17T07:36:05.652Z,11.18
2022-10-17T07:38:32.483Z,11.18
2022-10-17T07:41:01.276Z,11.70
2022-10-17T07:43:29.026Z,11.38
2022-10-17T07:45:55.991Z,11.85
2022-10-17T07:48:24.301Z,12.20
2022-10-17T07:50:51.276Z,11.75
2022-10-17T07:53:18.723Z,11.80
2022-10-17T07:55:46.651Z,10.70
2022-10-17T07:58:14.328Z,11.07
2022-10-17T08:00:41.327Z,10.98
2022-10-17T08:03:08.673Z,11.90
2022-10-17T08:05:35.534Z,11.32
2022-10-17T08:08:02.426Z,11.50
2022-10-17T08:10:29.892Z,11.55
2022-10-17T08:12:57.635Z,11.80
2022-10-17T08:15:31.704Z,11.23
2022-10-17T08:17:59.703Z,11.70
2022-10-17T08:20:27.007Z,11.48
2022-10-17T08:22:57.160Z,11.25
2022-10-17T08:25:24.331Z,11.25
2022-10-17T08:27:51.457Z,12.23
2022-10-17T08:30:18.454Z,11.12
2022-10-17T08:32:45.382Z,6.62
2022-10-17T08:35:12.555Z,7.45
2022-10-17T08:37:39.409Z,6.68
2022-10-17T08:40:07.037Z,5.95
2022-10-17T08:42:33.816Z,6.72
2022-10-17T08:45:32.421Z,6.12
2022-10-17T08:48:00.796Z,5.85
2022-10-17T08:50:38.436Z,5.28
2022-10-17T08:53:24.739Z,4.75
2022-10-17T08:58:38.837Z,5.32
2022-10-17T09:01:10.378Z,5.47
2022-10-17T09:04:08.891Z,4.68
2022-10-17T09:06:41.993Z,4.72
2022-10-17T09:09:39.747Z,4.90
2022-10-17T09:12:17.345Z,4.82
2022-10-17T09:14:55.366Z,4.57
2022-10-17T09:17:34.768Z,4.75
2022-10-17T09:20:12.869Z,4.65
2022-10-17T09:22:53.238Z,4.70
2022-10-17T09:25:21.121Z,4.57
2022-10-17T09:31:02.302Z,4.75
2022-10-17T09:33:54.349Z,5.03
2022-10-17T09:36:24.642Z,4.95
2022-10-17T09:38:56.648Z,4.80
2022-10-17T09:41:45.489Z,5.00
2022-10-17T09:44:30.897Z,4.60
2022-10-17T09:47:32.086Z,5.12
2022-10-17T09:49:59.272Z,5.05
2022-10-17T09:52:37.176Z,5.30
2022-10-17T09:55:22.955Z,5.07
2022-10-17T09:57:58.573Z,4.20
2022-10-17T10:00:33.189Z,5.00
2022-10-17T10:03:27.990Z,5.30
2022-10-17T10:09:36.843Z,5.07
2022-10-17T10:12:36.048Z,5.50
2022-10-17T10:15:30.741Z,5.40
2022-10-17T10:18:37.802Z,5.62
2022-10-17T10:21:37.393Z,5.07
2022-10-17T10:26:59.856Z,4.53
2022-10-17T10:29:30.947Z,5.60
2022-10-17T10:32:22.356Z,4.57
2022-10-17T10:35:19.129Z,5.12
2022-10-17T10:37:54.197Z,5.12
2022-10-17T10:40:28.182Z,5.40
2022-10-17T10:43:04.910Z,5.20
2022-10-17T10:45:54.104Z,4.90
2022-10-17T10:48:36.681Z,5.50
2022-10-17T10:51:18.163Z,5.35
2022-10-17T10:54:22.710Z,6.30
2022-10-17T10:57:01.002Z,5.65
2022-10-17T10:59:41.667Z,5.55
2022-10-17T11:02:16.236Z,5.57
2022-10-17T11:04:48.866Z,4.87
2022-10-17T11:07:17.847Z,5.35
2022-10-17T11:10:01.104Z,4.82
2022-10-17T11:12:35.146Z,5.35
2022-10-17T11:15:34.447Z,5.47
2022-10-17T11:18:05.108Z,5.15
2022-10-17T11:20:48.325Z,5.37
2022-10-17T11:23:28.684Z,5.15
2022-10-17T11:25:58.283Z,4.93
2022-10-17T11:28:25.774Z,4.65
2022-10-17T11:31:15.782Z,5.37
2022-10-17T11:34:04.276Z,4.90
2022-10-17T11:36:36.820Z,4.10
2022-10-17T11:39:18.557Z,5.10
2022-10-17T11:42:10.854Z,4.50
2022-10-17T11:44:39.990Z,4.90
2022-10-17T11:47:31.005Z,5.10
2022-10-17T11:53:14.111Z,4.60
2022-10-17T11:55:45.866Z,4.85
2022-10-17T11:58:37.444Z,4.40
2022-10-17T12:01:41.260Z,4.65
2022-10-17T12:04:34.725Z,4.43
2022-10-17T12:07:13.699Z,4.65
2022-10-17T12:10:20.168Z,4.10
2022-10-17T12:12:48.321Z,4.62
2022-10-17T12:15:23.493Z,5.05
2022-10-17T12:18:02.486Z,4.62
2022-10-17T12:20:32.324Z,4.62
2022-10-17T12:23:05.009Z,4.30
2022-10-17T12:28:17.383Z,4.68
2022-10-17T12:31:01.470Z,4.62
2022-10-17T12:33:40.277Z,4.25
2022-10-17T12:36:21.288Z,4.60
2022-10-17T12:39:01.753Z,4.68
2022-10-17T12:41:51.835Z,4.70
2022-10-17T12:44:21.535Z,4.62
2022-10-17T12:47:08.099Z,4.40
2022-10-17T12:49:54.359Z,5.28
2022-10-17T12:52:27.548Z,4.82
2022-10-17T12:55:13.784Z,5.00
2022-10-17T12:57:57.331Z,5.22
2022-10-17T13:00:27.461Z,4.65
2022-10-17T13:03:05.098Z,4.55
2022-10-17T13:05:40.917Z,4.40
2022-10-17T13:08:20.208Z,4.25
2022-10-17T13:10:53.893Z,4.72
2022-10-17T13:13:35.924Z,4.70
2022-10-17T13:16:08.881Z,4.28
2022-10-17T13:18:40.528Z,4.47
2022-10-17T13:21:20.585Z,4.65
2022-10-17T13:23:55.927Z,3.72
2022-10-17T13:26:31.868Z,3.95
2022-10-17T13:29:14.027Z,3.67
2022-10-17T13:31:45.004Z,4.00
2022-10-17T13:34:20.172Z,4.45
2022-10-17T13:36:55.119Z,4.05
2022-10-17T13:39:44.941Z,4.00
2022-10-17T13:42:24.520Z,3.40
2022-10-17T13:44:52.517Z,3.60
2022-10-17T13:47:24.053Z,3.25
2022-10-17T13:49:54.433Z,3.78
2022-10-17T13:52:25.571Z,2.78
2022-10-17T13:55:12.481Z,3.30
2022-10-17T13:57:41.118Z,3.70
2022-10-17T14:00:16.314Z,3.60
2022-10-17T14:02:43.286Z,3.70
2022-10-17T14:05:17.222Z,3.50
2022-10-17T14:10:38.218Z,3.97
2022-10-17T14:13:08.311Z,3.62
2022-10-17T14:15:36.751Z,3.50
2022-10-17T14:18:08.313Z,4.68
2022-10-17T14:23:41.920Z,4.30
2022-10-17T14:26:21.529Z,4.10
2022-10-17T14:29:10.682Z,4.07
2022-10-17T14:31:37.644Z,4.07
2022-10-17T14:34:05.473Z,3.70
2022-10-17T14:36:38.265Z,3.90
2022-10-17T14:39:13.384Z,3.65
2022-10-17T14:41:45.700Z,3.90
2022-10-17T14:44:35.909Z,4.78
2022-10-17T14:47:30.871Z,4.22
2022-10-17T14:50:07.406Z,3.87
2022-10-17T14:52:35.441Z,3.62
2022-10-17T14:55:26.567Z,3.35
2022-10-17T14:57:53.408Z,3.08
2022-10-17T15:00:22.134Z,3.67
2022-10-17T15:02:50.359Z,3.65
2022-10-17T15:05:17.725Z,3.53
2022-10-17T15:07:44.583Z,3.67
2022-10-17T15:10:24.944Z,3.12
2022-10-17T15:12:57.472Z,3.35
2022-10-17T15:15:32.092Z,3.20
2022-10-17T15:17:58.939Z,3.03
2022-10-17T15:20:28.115Z,3.17
2022-10-17T15:22:55.563Z,3.05
2022-10-17T15:25:24.194Z,3.35
2022-10-17T15:27:51.344Z,4.50
2022-10-17T15:30:22.603Z,5.68
2022-10-17T15:32:50.023Z,5.10
2022-10-17T15:35:17.537Z,5.07
2022-10-17T15:37:46.904Z,5.18
2022-10-17T15:40:24.187Z,4.95
2022-10-17T15:42:51.414Z,5.18
2022-10-17T15:45:21.845Z,5.62
2022-10-17T15:47:53.390Z,5.20
2022-10-17T15:50:21.897Z,6.28
2022-10-17T15:52:51.205Z,7.28
2022-10-17T15:55:18.638Z,8.32
2022-10-17T15:57:46.941Z,9.40
2022-10-17T16:00:17.810Z,12.05
2022-10-17T16:02:45.526Z,11.98
2022-10-17T16:05:18.093Z,12.00
2022-10-17T16:07:46.895Z,11.07
2022-10-17T16:10:14.538Z,13.02
2022-10-17T16:12:41.608Z,14.52
2022-10-17T16:15:14.542Z,16.23
2022-10-17T16:17:41.683Z,19.40
2022-10-17T16:20:08.839Z,27.90
2022-10-17T16:22:36.888Z,39.67
2022-10-17T16:25:11.861Z,38.35
2022-10-17T16:27:39.294Z,35.25
2022-10-17T16:30:07.887Z,35.72
2022-10-17T16:32:34.797Z,29.02
2022-10-17T16:35:01.777Z,24.70
2022-10-17T16:37:28.598Z,25.98
2022-10-17T16:39:55.475Z,32.40
2022-10-17T16:42:23.139Z,37.25
2022-10-17T16:44:50.770Z,40.88
2022-10-17T16:47:18.609Z,41.30
2022-10-17T16:49:45.678Z,40.30
2022-10-17T16:52:12.762Z,39.08
2022-10-17T16:54:39.614Z,42.40
2022-10-17T16:57:06.463Z,48.65
2022-10-17T16:59:33.374Z,47.80
2022-10-17T17:02:00.207Z,50.05
2022-10-17T17:04:27.025Z,44.45
2022-10-17T17:06:53.872Z,40.75
2022-10-17T17:09:20.707Z,45.85
2022-10-17T17:11:47.689Z,45.08
2022-10-17T17:14:14.543Z,42.00
2022-10-17T17:16:41.416Z,40.10
2022-10-17T17:19:11.513Z,37.70
2022-10-17T17:21:38.603Z,41.00
2022-10-17T17:24:06.006Z,43.80
2022-10-17T17:26:37.098Z,26.10
2022-10-17T17:29:04.142Z,44.95
2022-10-17T17:31:33.153Z,66.75
2022-10-17T17:34:00.511Z,60.55
2022-10-17T17:36:32.527Z,48.35
2022-10-17T17:39:01.236Z,33.20
2022-10-17T17:41:28.718Z,20.12
2022-10-17T17:43:56.068Z,18.98
2022-10-17T17:46:24.086Z,10.20
2022-10-17T17:48:51.768Z,11.52
2022-10-17T17:51:25.593Z,14.23
2022-10-17T17:53:56.398Z,11.98
2022-10-17T17:56:28.580Z,20.70
2022-10-17T17:58:58.679Z,26.45
2022-10-17T18:01:27.640Z,9.70
2022-10-17T18:03:55.607Z,17.90
2022-10-17T18:06:23.249Z,19.95
2022-10-17T18:08:55.451Z,17.75
2022-10-17T18:11:22.398Z,16.73
2022-10-17T18:13:54.772Z,15.57
2022-10-17T18:16:21.779Z,14.70
2022-10-17T18:18:48.681Z,13.70
2022-10-17T18:21:15.567Z,14.45
2022-10-17T18:23:45.141Z,14.98
2022-10-17T18:26:12.649Z,14.23
2022-10-17T18:31:09.973Z,15.07
2022-10-17T18:33:36.888Z,15.27
2022-10-17T18:36:09.540Z,17.00
2022-10-17T18:38:36.390Z,20.20
2022-10-17T18:41:23.093Z,17.95
2022-10-17T18:43:50.907Z,17.73
2022-10-17T18:46:22.355Z,17.45
2022-10-17T18:48:50.243Z,16.95
2022-10-17T18:51:23.457Z,17.27
2022-10-17T18:53:52.601Z,19.15
2022-10-17T18:56:20.566Z,12.57
2022-10-17T18:58:47.781Z,10.32
2022-10-17T19:01:18.205Z,13.90
2022-10-17T19:03:47.014Z,10.80
2022-10-17T19:06:17.084Z,9.15
2022-10-17T19:08:44.633Z,10.05
2022-10-17T19:11:18.737Z,9.45
2022-10-17T19:16:23.132Z,13.77
2022-10-17T19:18:54.347Z,12.20
2022-10-17T19:21:22.369Z,15.30
2022-10-17T19:23:57.767Z,16.60
2022-10-17T19:26:26.382Z,17.25
2022-10-17T19:28:53.972Z,21.52
2022-10-17T19:31:26.417Z,26.30
2022-10-17T19:33:54.857Z,27.15
2022-10-17T19:36:27.480Z,25.80
2022-10-17T19:38:58.239Z,15.88
2022-10-17T19:41:25.322Z,11.93
2022-10-17T19:43:52.214Z,10.27
2022-10-17T19:46:23.230Z,9.32
2022-10-17T19:48:51.177Z,10.65
2022-10-17T19:51:19.713Z,10.50
2022-10-17T19:53:47.173Z,9.65
2022-10-17T19:56:14.211Z,9.82
2022-10-17T19:58:45.450Z,11.63
2022-10-17T20:01:15.144Z,9.27
2022-10-17T20:03:42.106Z,8.40
2022-10-17T20:06:09.181Z,8.65
2022-10-17T20:08:37.074Z,8.70
2022-10-17T20:11:09.819Z,9.63
2022-10-17T20:13:37.518Z,9.10
2022-10-17T20:16:05.348Z,8.73
2022-10-17T20:18:32.624Z,8.55
2022-10-17T20:21:08.776Z,8.43
2022-10-17T20:23:35.802Z,8.52
2022-10-17T20:26:25.490Z,8.43
2022-10-17T20:28:53.761Z,8.75
2022-10-17T20:31:21.213Z,8.48
2022-10-17T20:33:48.169Z,8.13
2022-10-17T20:36:15.179Z,8.70
2022-10-17T20:38:42.001Z,7.47
2022-10-17T20:41:10.002Z,8.70
2022-10-17T20:43:37.430Z,7.87
2022-10-17T20:46:16.966Z,7.68
2022-10-17T20:48:54.147Z,7.68
2022-10-17T20:51:21.446Z,8.00
2022-10-17T20:53:48.823Z,7.80
2022-10-17T20:56:26.840Z,7.03
2022-10-17T20:58:58.582Z,6.37
2022-10-17T21:01:26.359Z,7.82
2022-10-17T21:03:53.817Z,6.45
2022-10-17T21:06:21.551Z,6.57
2022-10-17T21:08:49.151Z,6.95
2022-10-17T21:11:16.861Z,7.18
2022-10-17T21:13:44.239Z,7.35
2022-10-17T21:16:16.507Z,7.95
2022-10-17T21:18:43.687Z,7.22
2022-10-17T21:21:13.465Z,7.72
2022-10-17T21:23:41.546Z,7.53
2022-10-17T21:26:09.956Z,6.90
2022-10-17T21:28:37.766Z,7.07
2022-10-17T21:31:14.008Z,6.87
2022-10-17T21:33:41.765Z,6.93
2022-10-17T21:36:09.298Z,6.03
2022-10-17T21:38:37.737Z,5.93
2022-10-17T21:41:06.027Z,5.50
2022-10-17T21:43:33.622Z,5.37
2022-10-17T21:46:12.529Z,5.75
2022-10-17T21:48:39.812Z,5.70
2022-10-17T21:51:10.965Z,6.07
2022-10-17T21:53:38.077Z,5.78
2022-10-17T21:56:11.323Z,6.57
2022-10-17T21:58:38.340Z,6.50
2022-10-17T22:01:20.970Z,7.12
2022-10-17T22:03:50.290Z,6.87
2022-10-17T22:09:09.251Z,7.55
2022-10-17T22:11:36.534Z,7.18
2022-10-17T22:14:08.690Z,6.78
2022-10-17T22:16:35.686Z,6.87
2022-10-17T22:19:06.407Z,7.45
2022-10-17T22:21:35.489Z,7.10
2022-10-17T22:24:05.635Z,7.12
2022-10-17T22:26:34.241Z,7.15
2022-10-17T22:29:01.281Z,7.32
2022-10-17T22:31:28.175Z,6.72
2022-10-17T22:33:55.024Z,7.57
2022-10-17T22:36:21.855Z,8.00
2022-10-17T22:38:48.860Z,7.82
2022-10-17T22:41:15.826Z,7.72
2022-10-17T22:43:42.795Z,8.25
2022-10-17T22:46:13.056Z,9.45
2022-10-17T22:48:40.169Z,10.80
2022-10-17T22:51:07.209Z,11.77
2022-10-17T22:53:35.267Z,10.20
2022-10-17T22:56:08.399Z,8.30
2022-10-17T22:58:35.794Z,7.82
2022-10-17T23:01:03.742Z,7.55
2022-10-17T23:03:31.511Z,6.87
2022-10-17T23:05:58.633Z,7.20
2022-10-17T23:08:25.904Z,6.93
2022-10-17T23:10:53.167Z,7.28
2022-10-17T23:13:21.428Z,6.50
2022-10-17T23:15:53.039Z,6.22
2022-10-17T23:18:20.814Z,7.20
2022-10-17T23:20:48.147Z,6.87
2022-10-17T23:23:15.500Z,6.55
2022-10-17T23:25:42.885Z,7.10
2022-10-17T23:28:09.969Z,6.68
2022-10-17T23:30:37.533Z,6.95
2022-10-17T23:33:05.164Z,6.78
2022-10-17T23:35:32.531Z,7.03
2022-10-17T23:37:59.385Z,6.87
2022-10-17T23:40:26.441Z,7.65
2022-10-17T23:42:53.303Z,9.45
2022-10-17T23:45:20.266Z,9.10
2022-10-17T23:47:47.231Z,8.45
2022-10-17T23:50:14.074Z,7.05
2022-10-17T23:52:40.906Z,6.60
2022-10-17T23:55:08.602Z,6.53
2022-10-17T23:57:35.455Z,7.28
